Time;durP1;ratioP1;P1;durP2;ratioP2;P2;SDS_P1;SDS_P2;PMS_P1;PMS_P2;Temp;Humidity;BMP_temperature;BMP_pressure;BME280_temperature;BME280_humidity;BME280_pressure;Samples;Min_cycle;Max_cycle;Signal;HPM_P1;HPM_P2
2021/03/03 00:00:48;;;;;;;11.73;5.13;;;2.80;99.90;;;;;;4985551;28;20216;-88
2021/03/03 00:03:14;;;;;;;8.10;6.07;;;2.80;99.90;;;;;;4983217;28;20196;-89
2021/03/03 00:05:40;;;;;;;8.67;5.67;;;2.70;99.90;;;;;;4967742;28;21027;-89
2021/03/03 00:08:06;;;;;;;5.07;4.60;;;2.60;99.90;;;;;;4969821;28;20314;-89
2021/03/03 00:10:32;;;;;;;7.43;4.37;;;2.50;99.90;;;;;;4972553;28;20736;-88
2021/03/03 00:12:58;;;;;;;7.27;4.80;;;2.50;99.90;;;;;;4961578;28;20222;-89
2021/03/03 00:15:23;;;;;;;6.33;4.23;;;2.40;99.90;;;;;;5011023;28;20222;-88
2021/03/03 00:17:49;;;;;;;8.17;4.33;;;2.50;99.90;;;;;;4998234;28;20715;-90
2021/03/03 00:20:16;;;;;;;6.33;4.60;;;2.50;99.90;;;;;;4995139;28;21092;-91
2021/03/03 00:22:42;;;;;;;3.87;3.57;;;2.60;99.90;;;;;;5020697;28;20264;-88
2021/03/03 00:25:08;;;;;;;6.93;5.67;;;2.60;99.90;;;;;;4994961;28;20337;-89
2021/03/03 00:27:34;;;;;;;3.57;3.27;;;2.60;99.90;;;;;;4995312;28;20562;-90
2021/03/03 00:30:00;;;;;;;3.67;2.87;;;2.60;99.90;;;;;;4988394;28;20211;-88
2021/03/03 00:32:26;;;;;;;7.20;2.83;;;2.60;99.90;;;;;;4991992;28;20215;-89
2021/03/03 00:34:54;;;;;;;5.67;4.53;;;2.60;99.90;;;;;;5004364;28;20233;-89
2021/03/03 00:37:20;;;;;;;7.20;5.23;;;2.60;99.90;;;;;;5010376;28;20226;-89
2021/03/03 00:39:46;;;;;;;4.13;3.73;;;2.70;99.90;;;;;;5010435;28;20227;-88
2021/03/03 00:42:12;;;;;;;8.00;3.43;;;2.70;99.90;;;;;;4995288;28;20984;-88
2021/03/03 00:44:37;;;;;;;5.70;5.20;;;2.60;99.90;;;;;;5013814;28;20549;-88
2021/03/03 00:47:03;;;;;;;5.73;5.17;;;2.60;99.90;;;;;;4992797;28;20676;-88
2021/03/03 00:49:29;;;;;;;5.53;4.30;;;2.60;99.90;;;;;;4993106;28;20972;-88
2021/03/03 00:51:55;;;;;;;6.63;5.50;;;2.60;99.90;;;;;;4988601;28;20256;-88
2021/03/03 00:54:20;;;;;;;5.63;4.97;;;2.60;99.90;;;;;;4995323;28;20265;-88
2021/03/03 00:56:46;;;;;;;7.07;4.50;;;2.60;99.90;;;;;;4996797;28;20249;-88
2021/03/03 00:59:12;;;;;;;9.40;4.17;;;2.60;99.90;;;;;;4990114;28;20285;-87
2021/03/03 01:01:38;;;;;;;4.83;4.43;;;2.60;99.90;;;;;;4999408;28;20237;-89
2021/03/03 01:04:04;;;;;;;5.53;5.13;;;2.60;99.90;;;;;;5001023;28;20219;-88
2021/03/03 01:06:30;;;;;;;7.47;6.80;;;2.60;99.90;;;;;;5022146;28;20276;-88
2021/03/03 01:08:58;;;;;;;6.83;5.33;;;2.60;99.90;;;;;;5002091;28;20277;-90
2021/03/03 01:11:24;;;;;;;5.80;4.73;;;2.50;99.90;;;;;;5009227;28;20217;-89
2021/03/03 01:13:50;;;;;;;6.80;5.40;;;2.40;99.90;;;;;;5003454;28;20241;-87
2021/03/03 01:16:16;;;;;;;5.63;4.93;;;2.30;99.90;;;;;;4964374;28;20306;-88
2021/03/03 01:18:42;;;;;;;9.27;6.77;;;2.20;99.90;;;;;;4978638;28;20222;-89
2021/03/03 01:21:08;;;;;;;18.20;5.13;;;2.10;99.90;;;;;;4991100;28;20222;-88
2021/03/03 01:23:33;;;;;;;22.67;6.10;;;2.10;99.90;;;;;;4986313;28;21112;-91
2021/03/03 01:25:59;;;;;;;70.80;8.87;;;2.10;99.90;;;;;;4987044;28;21213;-88
2021/03/03 01:28:25;;;;;;;11.60;5.80;;;2.00;99.90;;;;;;5002918;28;20786;-90
2021/03/03 01:30:51;;;;;;;10.17;3.93;;;1.90;99.90;;;;;;4999699;28;20229;-88
2021/03/03 01:33:30;;;;;;;3.93;3.47;;;1.90;99.90;;;;;;4985395;28;20198;-89
2021/03/03 01:35:56;;;;;;;5.77;3.80;;;1.90;99.90;;;;;;5016409;28;20214;-89
2021/03/03 01:38:23;;;;;;;8.30;6.73;;;2.00;99.90;;;;;;5019812;28;20232;-90
2021/03/03 01:40:49;;;;;;;17.90;5.30;;;2.00;99.90;;;;;;4973991;28;20247;-88
2021/03/03 01:43:15;;;;;;;35.43;5.10;;;1.90;99.90;;;;;;5012795;28;20667;-88
2021/03/03 01:45:41;;;;;;;49.97;6.70;;;1.90;99.90;;;;;;5019514;28;20233;-87
2021/03/03 01:48:08;;;;;;;43.13;5.13;;;1.80;99.90;;;;;;5008059;28;20817;-88
2021/03/03 01:50:34;;;;;;;7.07;4.03;;;1.80;99.90;;;;;;4995882;28;20749;-89
2021/03/03 01:53:01;;;;;;;9.47;5.03;;;1.80;99.90;;;;;;5018284;28;20215;-90
2021/03/03 01:55:27;;;;;;;5.03;4.47;;;1.80;99.90;;;;;;5024198;28;20802;-91
2021/03/03 01:57:53;;;;;;;5.37;4.87;;;2.70;99.90;;;;;;4985862;28;20283;-91
2021/03/03 02:00:19;;;;;;;9.60;5.30;;;2.50;99.90;;;;;;5003097;28;20223;-88
2021/03/03 02:02:45;;;;;;;7.50;5.77;;;2.50;99.90;;;;;;5008954;28;20194;-89
2021/03/03 02:05:12;;;;;;;7.13;4.73;;;2.50;99.90;;;;;;4995941;28;20218;-88
2021/03/03 02:07:40;;;;;;;13.20;5.10;;;2.10;99.90;;;;;;4991226;28;20215;-89
2021/03/03 02:10:22;;;;;;;4.03;2.43;;;2.00;99.90;;;;;;5016589;28;20751;-89
2021/03/03 02:13:03;;;;;;;6.57;4.97;;;1.80;99.90;;;;;;4989019;28;20225;-89
2021/03/03 02:15:32;;;;;;;5.80;5.17;;;1.90;99.90;;;;;;5030909;28;20221;-88
2021/03/03 02:18:01;;;;;;;8.87;7.77;;;1.80;99.90;;;;;;5013835;28;20209;-90
2021/03/03 02:20:32;;;;;;;4.77;4.00;;;1.70;99.90;;;;;;5022754;28;20224;-90
2021/03/03 02:23:38;;;;;;;6.27;4.97;;;1.70;99.90;;;;;;5022713;28;20707;-89
2021/03/03 02:26:04;;;;;;;4.87;4.40;;;1.60;99.90;;;;;;5010546;28;20223;-89
2021/03/03 02:28:31;;;;;;;5.17;4.70;;;1.60;99.90;;;;;;5000451;28;20230;-87
2021/03/03 02:30:57;;;;;;;4.60;3.23;;;2.30;99.90;;;;;;4987431;28;20569;-88
2021/03/03 02:33:24;;;;;;;7.10;3.67;;;2.90;99.90;;;;;;4954218;28;20305;-89
2021/03/03 02:35:50;;;;;;;3.30;3.03;;;3.50;99.90;;;;;;4987648;28;20186;-88
2021/03/03 02:38:18;;;;;;;7.03;5.67;;;3.70;99.90;;;;;;4970247;28;20301;-89
2021/03/03 02:40:44;;;;;;;9.23;6.03;;;3.80;99.90;;;;;;4989951;28;20273;-89
2021/03/03 02:43:29;;;;;;;9.00;5.07;;;3.90;99.90;;;;;;5000378;28;20318;-87
2021/03/03 02:45:55;;;;;;;6.67;5.43;;;3.90;99.90;;;;;;4969564;28;20226;-89
2021/03/03 02:48:21;;;;;;;8.60;5.67;;;3.90;99.90;;;;;;5018580;28;21073;-87
2021/03/03 02:50:47;;;;;;;6.93;5.87;;;3.90;99.90;;;;;;4994625;28;20340;-89
2021/03/03 02:53:13;;;;;;;7.17;6.47;;;3.90;99.90;;;;;;4995925;28;20225;-89
2021/03/03 02:55:43;;;;;;;13.27;6.10;;;4.00;99.90;;;;;;5009393;28;20283;-89
2021/03/03 02:58:13;;;;;;;8.03;6.73;;;4.10;99.90;;;;;;4985402;28;20222;-87
2021/03/03 03:00:41;;;;;;;6.10;4.93;;;4.00;99.90;;;;;;4986113;28;20214;-89
2021/03/03 03:03:31;;;;;;;5.57;5.17;;;4.00;99.90;;;;;;4993283;28;20277;-89
2021/03/03 03:06:13;;;;;;;9.10;6.07;;;4.00;99.90;;;;;;5003462;28;20198;-92
2021/03/03 03:08:40;;;;;;;7.57;5.37;;;4.10;99.90;;;;;;5023283;28;20218;-88
2021/03/03 03:11:09;;;;;;;12.30;7.73;;;4.10;99.90;;;;;;5002407;28;20226;-89
2021/03/03 03:13:36;;;;;;;12.23;7.67;;;4.10;99.90;;;;;;5001293;28;20301;-88
2021/03/03 03:16:03;;;;;;;8.07;6.77;;;4.00;99.90;;;;;;5025361;28;20222;-88
2021/03/03 03:18:34;;;;;;;8.47;5.20;;;4.00;99.90;;;;;;5027099;28;20353;-88
2021/03/03 03:21:01;;;;;;;12.00;5.93;;;4.00;99.90;;;;;;5005324;28;20198;-87
2021/03/03 03:23:27;;;;;;;8.80;5.63;;;4.00;99.90;;;;;;4996164;28;20214;-88
2021/03/03 03:25:55;;;;;;;7.53;6.77;;;4.00;99.90;;;;;;5008430;28;20222;-89
2021/03/03 03:28:22;;;;;;;13.47;6.33;;;4.00;99.90;;;;;;4997144;28;20230;-89
2021/03/03 03:30:50;;;;;;;8.10;6.20;;;3.70;99.90;;;;;;4995072;28;20251;-88
2021/03/03 03:33:18;;;;;;;10.47;4.73;;;3.50;99.90;;;;;;5027594;28;20265;-90
2021/03/03 03:35:45;;;;;;;13.67;4.07;;;3.30;99.90;;;;;;5025826;28;20179;-90
2021/03/03 03:38:11;;;;;;;3.20;2.97;;;3.10;99.90;;;;;;5011419;28;20214;-88
2021/03/03 03:40:37;;;;;;;5.47;4.33;;;2.80;99.90;;;;;;4991835;28;20230;-88
2021/03/03 03:43:07;;;;;;;7.13;3.93;;;2.70;99.90;;;;;;5005908;28;21240;-91
2021/03/03 03:45:35;;;;;;;5.40;5.00;;;2.90;99.90;;;;;;5007604;28;21059;-91
2021/03/03 03:48:02;;;;;;;7.30;4.97;;;3.00;99.90;;;;;;5008540;28;20261;-90
2021/03/03 03:50:28;;;;;;;7.10;6.40;;;3.10;99.90;;;;;;5002726;28;20251;-88
2021/03/03 03:52:56;;;;;;;7.07;6.47;;;3.30;99.90;;;;;;4990131;28;20242;-89
2021/03/03 03:55:33;;;;;;;3.87;3.67;;;3.30;99.90;;;;;;5015895;28;20938;-88
2021/03/03 03:58:00;;;;;;;3.87;3.67;;;3.20;99.90;;;;;;5005955;28;20249;-90
2021/03/03 04:00:26;;;;;;;4.27;3.50;;;3.00;99.90;;;;;;4981110;28;20226;-91
2021/03/03 04:02:53;;;;;;;4.43;4.03;;;2.80;99.90;;;;;;4964056;28;20309;-89
2021/03/03 04:05:19;;;;;;;5.57;4.77;;;2.70;99.90;;;;;;4995708;28;20238;-89
2021/03/03 04:07:45;;;;;;;3.87;3.67;;;2.60;99.90;;;;;;5011317;28;20223;-90
2021/03/03 04:10:18;;;;;;;3.57;3.13;;;2.60;99.90;;;;;;5018556;28;20234;-89
2021/03/03 04:12:44;;;;;;;4.13;3.83;;;2.40;99.90;;;;;;5008585;28;20215;-89
2021/03/03 04:15:11;;;;;;;9.50;5.57;;;2.50;99.90;;;;;;4965914;28;20940;-89
2021/03/03 04:17:38;;;;;;;6.17;5.47;;;2.70;99.90;;;;;;5002861;28;20203;-88
2021/03/03 04:20:06;;;;;;;4.93;4.40;;;2.80;99.90;;;;;;4994207;28;20225;-88
2021/03/03 04:22:32;;;;;;;7.53;6.00;;;2.90;99.90;;;;;;5000016;28;20225;-88
2021/03/03 04:24:59;;;;;;;7.97;7.17;;;3.00;99.90;;;;;;4968548;28;20265;-89
2021/03/03 04:27:25;;;;;;;8.30;5.90;;;3.00;99.90;;;;;;4965558;28;20564;-89
2021/03/03 04:29:51;;;;;;;7.47;6.30;;;3.00;99.90;;;;;;4981115;28;20215;-91
2021/03/03 04:32:16;;;;;;;8.37;7.73;;;3.10;99.90;;;;;;4992368;28;20226;-88
2021/03/03 04:34:42;;;;;;;7.60;6.37;;;3.10;99.90;;;;;;5012081;28;21110;-88
2021/03/03 04:37:08;;;;;;;7.70;6.63;;;3.00;99.90;;;;;;4962464;28;21132;-91
2021/03/03 04:39:34;;;;;;;7.30;5.83;;;3.00;99.90;;;;;;4966546;28;20350;-87
2021/03/03 04:42:01;;;;;;;10.37;6.57;;;3.10;99.90;;;;;;4978960;28;20249;-88
2021/03/03 04:44:27;;;;;;;4.17;3.97;;;3.10;99.90;;;;;;5017386;28;20221;-91
2021/03/03 04:46:52;;;;;;;4.10;3.70;;;3.10;99.90;;;;;;4979080;28;20230;-86
2021/03/03 04:49:21;;;;;;;5.53;5.03;;;3.00;99.90;;;;;;4992755;28;20223;-89
2021/03/03 04:51:47;;;;;;;4.80;3.93;;;2.90;99.90;;;;;;5008724;28;20344;-90
2021/03/03 04:54:13;;;;;;;9.77;4.87;;;2.80;99.90;;;;;;4993178;28;20309;-87
2021/03/03 04:56:38;;;;;;;8.23;7.23;;;2.80;99.90;;;;;;5013317;28;20278;-91
2021/03/03 04:59:04;;;;;;;10.53;4.43;;;2.80;99.90;;;;;;4994289;28;20227;-87
2021/03/03 05:01:33;;;;;;;7.47;5.27;;;2.90;99.90;;;;;;4987110;28;20218;-91
2021/03/03 05:03:59;;;;;;;6.60;5.30;;;2.90;99.90;;;;;;4996440;28;20632;-89
2021/03/03 05:06:25;;;;;;;13.63;6.27;;;3.00;99.90;;;;;;5010250;28;20226;-90
2021/03/03 05:08:51;;;;;;;6.47;4.17;;;2.80;99.90;;;;;;4999111;28;20214;-88
2021/03/03 05:11:17;;;;;;;3.87;2.93;;;2.60;99.90;;;;;;5000395;28;20227;-90
2021/03/03 05:13:43;;;;;;;3.17;2.87;;;2.40;99.90;;;;;;4992885;28;20721;-88
2021/03/03 05:16:09;;;;;;;5.17;3.97;;;2.40;99.90;;;;;;4995206;28;20330;-89
2021/03/03 05:18:35;;;;;;;6.57;5.43;;;2.30;99.90;;;;;;5010307;28;20273;-88
2021/03/03 05:21:01;;;;;;;5.20;4.70;;;2.40;99.90;;;;;;5010922;28;20187;-88
2021/03/03 05:23:28;;;;;;;3.33;3.03;;;2.50;99.90;;;;;;4986293;28;20218;-88
2021/03/03 05:25:54;;;;;;;5.13;4.53;;;2.50;99.90;;;;;;5004636;28;20574;-88
2021/03/03 05:28:20;;;;;;;4.40;4.10;;;2.50;99.90;;;;;;4997747;28;20245;-89
2021/03/03 05:30:46;;;;;;;5.00;4.27;;;2.40;99.90;;;;;;5002295;28;20727;-87
2021/03/03 05:33:12;;;;;;;6.03;4.97;;;2.30;99.90;;;;;;4988236;28;20218;-90
2021/03/03 05:35:37;;;;;;;3.43;3.20;;;2.20;99.90;;;;;;5005302;28;20893;-90
2021/03/03 05:38:03;;;;;;;4.80;4.33;;;2.20;99.90;;;;;;5010664;28;20706;-91
2021/03/03 05:40:29;;;;;;;5.07;4.70;;;2.20;99.90;;;;;;4996971;28;20592;-88
2021/03/03 05:42:55;;;;;;;6.60;5.03;;;2.30;99.90;;;;;;4995386;28;20210;-93
2021/03/03 05:45:21;;;;;;;6.23;3.97;;;2.30;99.90;;;;;;4995894;28;21134;-89
2021/03/03 05:47:48;;;;;;;6.13;3.00;;;2.40;99.90;;;;;;5011198;28;20187;-89
2021/03/03 05:50:16;;;;;;;4.90;4.50;;;2.30;99.90;;;;;;5026217;28;20257;-89
2021/03/03 05:52:43;;;;;;;6.43;4.73;;;2.20;99.90;;;;;;5005852;28;20233;-91
2021/03/03 05:55:09;;;;;;;8.57;4.83;;;2.40;99.90;;;;;;5002961;28;20232;-88
2021/03/03 05:57:36;;;;;;;10.43;6.63;;;2.60;99.90;;;;;;4987484;28;20226;-88
2021/03/03 06:00:04;;;;;;;8.53;6.07;;;2.60;99.90;;;;;;4973491;28;20234;-89
2021/03/03 06:02:32;;;;;;;4.73;4.33;;;2.60;99.90;;;;;;5012440;28;20214;-90
2021/03/03 06:04:59;;;;;;;9.10;6.20;;;2.60;99.90;;;;;;5007747;28;20214;-89
2021/03/03 06:07:26;;;;;;;9.23;8.30;;;2.80;99.90;;;;;;5026992;28;20226;-89
2021/03/03 06:09:52;;;;;;;17.67;6.33;;;2.80;99.90;;;;;;5014989;28;20238;-89
2021/03/03 06:12:17;;;;;;;7.77;5.93;;;2.70;99.90;;;;;;5007438;28;21109;-89
2021/03/03 06:14:43;;;;;;;8.13;5.17;;;2.60;99.90;;;;;;4972078;28;20197;-89
2021/03/03 06:17:09;;;;;;;10.77;5.77;;;2.60;99.90;;;;;;4993911;28;20225;-91
2021/03/03 06:19:35;;;;;;;22.63;5.73;;;2.50;99.90;;;;;;5019792;28;20276;-89
2021/03/03 06:22:20;;;;;;;8.17;6.87;;;2.60;99.90;;;;;;5009401;28;20222;-89
2021/03/03 06:24:46;;;;;;;8.07;6.33;;;2.50;99.90;;;;;;5018135;28;20219;-86
2021/03/03 06:27:12;;;;;;;11.13;7.13;;;2.60;99.90;;;;;;4981050;28;20252;-90
2021/03/03 06:29:38;;;;;;;9.53;7.47;;;2.80;99.90;;;;;;5006460;28;20207;-88
2021/03/03 06:32:05;;;;;;;11.13;7.43;;;2.70;99.90;;;;;;4985855;28;20277;-90
2021/03/03 06:34:31;;;;;;;8.67;5.90;;;2.80;99.90;;;;;;4996682;28;20227;-90
2021/03/03 06:37:00;;;;;;;8.10;6.77;;;2.80;99.90;;;;;;5019362;28;20219;-88
2021/03/03 06:39:29;;;;;;;10.17;6.77;;;2.80;99.90;;;;;;5004468;28;20313;-90
2021/03/03 06:41:59;;;;;;;8.20;6.63;;;2.90;99.90;;;;;;5010349;28;20203;-90
2021/03/03 06:44:47;;;;;;;8.00;6.90;;;3.00;99.90;;;;;;5005481;28;20211;-88
2021/03/03 06:47:16;;;;;;;6.50;5.83;;;3.20;99.90;;;;;;5016711;28;20271;-90
2021/03/03 06:49:43;;;;;;;10.00;8.27;;;3.40;99.90;;;;;;5019627;28;20230;-88
2021/03/03 06:52:09;;;;;;;9.23;7.27;;;3.60;99.90;;;;;;4834852;28;4831477;-89
2021/03/03 06:54:37;;;;;;;8.87;8.10;;;3.80;99.90;;;;;;5027630;28;20295;-91
2021/03/03 06:57:05;;;;;;;17.47;11.47;;;4.00;99.90;;;;;;5009206;28;20186;-89
2021/03/03 06:59:35;;;;;;;13.23;10.53;;;4.30;99.90;;;;;;5029694;28;20177;-89
2021/03/03 07:02:09;;;;;;;11.97;7.53;;;4.40;99.90;;;;;;4990621;28;20223;-89
2021/03/03 07:04:42;;;;;;;8.53;7.60;;;4.60;99.90;;;;;;5025080;28;20213;-90
2021/03/03 07:07:11;;;;;;;11.80;8.37;;;4.80;99.90;;;;;;5012656;28;20679;-88
2021/03/03 07:09:40;;;;;;;13.07;10.67;;;4.70;99.90;;;;;;5010831;28;20237;-92
2021/03/03 07:12:11;;;;;;;13.70;8.77;;;4.70;99.90;;;;;;5024453;28;20182;-92
2021/03/03 07:14:40;;;;;;;10.17;7.63;;;4.70;99.90;;;;;;5010257;28;20293;-90
2021/03/03 07:17:13;;;;;;;9.57;6.77;;;4.50;99.90;;;;;;5009609;28;20221;-90
2021/03/03 07:19:42;;;;;;;8.10;6.50;;;4.40;99.90;;;;;;5012146;28;20222;-91
2021/03/03 07:22:35;;;;;;;6.73;6.23;;;4.30;99.90;;;;;;5011161;28;20300;-91
2021/03/03 07:25:10;;;;;;;31.90;6.80;;;4.20;99.90;;;;;;5024300;28;20292;-89
2021/03/03 07:27:37;;;;;;;5.07;4.63;;;4.10;99.90;;;;;;5027859;28;20292;-89
2021/03/03 07:30:12;;;;;;;2.87;2.60;;;3.90;99.90;;;;;;5008230;28;20760;-89
2021/03/03 07:32:38;;;;;;;3.47;2.73;;;3.60;99.90;;;;;;5011800;28;20193;-90
2021/03/03 07:35:07;;;;;;;8.67;5.40;;;3.50;99.90;;;;;;4999763;28;20226;-88
2021/03/03 07:37:36;;;;;;;4.57;3.90;;;3.40;99.90;;;;;;5009885;28;20322;-89
2021/03/03 07:40:08;;;;;;;3.83;3.20;;;3.30;99.90;;;;;;5027542;28;20239;-88
2021/03/03 07:42:34;;;;;;;2.83;2.60;;;3.20;99.90;;;;;;5010469;28;20214;-89
2021/03/03 07:45:12;;;;;;;1.97;1.87;;;3.20;99.90;;;;;;4997630;28;20183;-89
2021/03/03 07:47:40;;;;;;;6.33;2.43;;;3.20;99.90;;;;;;5011488;28;20214;-88
2021/03/03 07:50:09;;;;;;;3.70;2.03;;;3.10;99.90;;;;;;5008454;28;20227;-88
2021/03/03 07:52:37;;;;;;;2.43;2.30;;;3.20;99.90;;;;;;4996644;28;20334;-89
2021/03/03 07:55:04;;;;;;;4.53;2.67;;;3.20;99.90;;;;;;4973246;28;20223;-88
2021/03/03 07:57:33;;;;;;;0.97;0.97;;;3.30;99.90;;;;;;4978348;28;20427;-91
2021/03/03 08:00:05;;;;;;;1.77;1.67;;;3.30;99.90;;;;;;4993613;28;20196;-89
2021/03/03 08:02:51;;;;;;;1.40;1.40;;;3.30;99.90;;;;;;5007120;28;20223;-90
2021/03/03 08:05:29;;;;;;;3.17;2.87;;;3.30;99.90;;;;;;5007296;28;20710;-90
2021/03/03 08:08:13;;;;;;;2.80;2.53;;;3.40;99.90;;;;;;4991433;28;20229;-91
2021/03/03 08:10:43;;;;;;;2.70;2.47;;;3.50;99.90;;;;;;5010649;28;20241;-89
2021/03/03 08:13:35;;;;;;;2.50;1.97;;;3.50;99.90;;;;;;4986460;28;20224;-89
2021/03/03 08:16:08;;;;;;;2.87;2.57;;;3.50;99.90;;;;;;5008099;28;20231;-88
2021/03/03 08:18:49;;;;;;;1.90;1.40;;;3.60;99.90;;;;;;4993400;28;20245;-90
2021/03/03 08:21:18;;;;;;;4.00;2.67;;;3.60;99.90;;;;;;5003615;28;20183;-91
2021/03/03 08:23:45;;;;;;;1.87;1.13;;;3.60;99.90;;;;;;5020676;28;20249;-88
2021/03/03 08:26:16;;;;;;;21.90;3.63;;;3.50;99.90;;;;;;5011529;28;20226;-89
2021/03/03 08:28:52;;;;;;;2.00;1.90;;;3.60;99.90;;;;;;5002102;28;20239;-90
2021/03/03 08:31:22;;;;;;;2.90;2.70;;;3.60;99.90;;;;;;4994478;28;20269;-89
2021/03/03 08:33:48;;;;;;;2.20;1.60;;;3.60;99.90;;;;;;5002389;28;20206;-90
2021/03/03 08:36:32;;;;;;;3.27;2.97;;;3.50;99.90;;;;;;4989371;28;20253;-90
2021/03/03 08:38:58;;;;;;;2.20;2.07;;;3.60;99.90;;;;;;4993642;28;20202;-90
2021/03/03 08:41:30;;;;;;;3.47;3.23;;;3.60;99.90;;;;;;4987631;28;20700;-89
2021/03/03 08:44:04;;;;;;;3.17;2.87;;;3.60;99.90;;;;;;4992216;28;20354;-92
2021/03/03 08:46:30;;;;;;;2.33;2.13;;;3.60;99.90;;;;;;4997622;28;20222;-89
2021/03/03 08:48:56;;;;;;;3.90;2.03;;;3.70;99.90;;;;;;5011378;28;20231;-89
2021/03/03 08:51:29;;;;;;;3.00;2.77;;;3.70;99.90;;;;;;5004111;28;20262;-90
2021/03/03 08:54:01;;;;;;;3.37;2.40;;;3.70;99.90;;;;;;5013830;28;20658;-91
2021/03/03 08:56:40;;;;;;;10.97;3.73;;;3.80;99.90;;;;;;4996628;28;20221;-89
2021/03/03 08:59:13;;;;;;;4.07;2.80;;;3.80;99.90;;;;;;5011281;28;20737;-89
2021/03/03 09:01:54;;;;;;;2.83;2.63;;;3.80;99.90;;;;;;5013162;28;20222;-88
2021/03/03 09:04:30;;;;;;;1.97;1.73;;;3.90;99.90;;;;;;5028857;28;21873;-89
2021/03/03 09:07:02;;;;;;;5.37;3.30;;;3.90;99.90;;;;;;5029850;28;20295;-88
2021/03/03 09:09:34;;;;;;;7.73;2.10;;;4.00;99.90;;;;;;5030140;28;20235;-88
2021/03/03 09:12:05;;;;;;;1.20;1.20;;;4.20;99.90;;;;;;5033456;28;20178;-89
2021/03/03 09:14:32;;;;;;;3.97;3.57;;;4.30;99.90;;;;;;5032803;28;20219;-89
2021/03/03 09:17:00;;;;;;;18.97;5.23;;;4.20;99.90;;;;;;5011586;28;20281;-88
2021/03/03 09:19:27;;;;;;;3.43;2.80;;;4.20;99.90;;;;;;5028878;28;20261;-89
2021/03/03 09:21:53;;;;;;;6.27;3.90;;;4.20;99.90;;;;;;4997063;28;20222;-89
2021/03/03 09:24:20;;;;;;;7.70;4.97;;;4.40;99.90;;;;;;5013962;28;20218;-89
2021/03/03 09:26:46;;;;;;;4.53;2.70;;;4.40;99.90;;;;;;5014885;28;20190;-89
2021/03/03 09:29:29;;;;;;;2.33;2.13;;;4.30;99.90;;;;;;4996762;28;20794;-89
2021/03/03 09:31:56;;;;;;;3.77;3.37;;;4.40;99.90;;;;;;5029462;28;20210;-89
2021/03/03 09:34:22;;;;;;;13.37;4.40;;;4.40;99.90;;;;;;5013159;28;20268;-88
2021/03/03 09:37:00;;;;;;;4.43;3.13;;;4.40;99.90;;;;;;4995674;28;20214;-89
2021/03/03 09:39:27;;;;;;;4.00;2.47;;;4.50;99.90;;;;;;5029550;28;20222;-89
2021/03/03 09:42:02;;;;;;;4.43;2.73;;;4.40;99.90;;;;;;5014077;28;20220;-89
2021/03/03 09:44:42;;;;;;;10.63;5.17;;;4.40;99.90;;;;;;5010040;28;20221;-88
2021/03/03 09:47:07;;;;;;;2.13;2.03;;;4.30;99.90;;;;;;5020426;28;20225;-89
2021/03/03 09:49:35;;;;;;;24.17;4.80;;;4.50;99.90;;;;;;5007947;28;20234;-90
2021/03/03 09:52:01;;;;;;;2.77;2.57;;;4.50;99.90;;;;;;4994074;28;20245;-89
2021/03/03 09:54:28;;;;;;;10.90;3.53;;;4.40;99.90;;;;;;4994452;28;20332;-89
2021/03/03 09:56:54;;;;;;;1.50;1.47;;;4.50;99.90;;;;;;5008181;28;20199;-89
2021/03/03 09:59:20;;;;;;;4.40;3.00;;;4.60;99.90;;;;;;5007237;28;20956;-89
2021/03/03 10:01:47;;;;;;;5.87;5.03;;;4.50;99.90;;;;;;4997272;28;20576;-89
2021/03/03 10:04:14;;;;;;;4.63;3.70;;;4.50;99.90;;;;;;5006507;28;20215;-90
2021/03/03 10:06:40;;;;;;;3.77;2.07;;;4.50;99.90;;;;;;4988027;28;20858;-89
2021/03/03 10:09:06;;;;;;;3.03;2.83;;;4.50;99.90;;;;;;4988495;28;20219;-90
2021/03/03 10:11:32;;;;;;;3.30;3.10;;;4.40;99.90;;;;;;4995339;28;20199;-90
2021/03/03 10:14:08;;;;;;;7.63;4.13;;;4.50;99.90;;;;;;5001990;28;21182;-88
2021/03/03 10:16:34;;;;;;;4.17;3.47;;;4.50;99.90;;;;;;5016128;28;20215;-90
2021/03/03 10:19:03;;;;;;;1.67;1.57;;;4.50;99.90;;;;;;4997531;28;20281;-90
2021/03/03 10:21:28;;;;;;;12.90;5.53;;;4.50;99.90;;;;;;5003471;28;20321;-90
2021/03/03 10:23:55;;;;;;;10.87;4.93;;;4.50;99.90;;;;;;5011618;28;20555;-88
2021/03/03 10:26:40;;;;;;;8.67;4.40;;;4.60;99.90;;;;;;5004158;28;20214;-90
2021/03/03 10:29:07;;;;;;;6.10;5.43;;;4.60;99.90;;;;;;4985247;28;20231;-89
2021/03/03 10:31:33;;;;;;;6.70;5.23;;;4.60;99.90;;;;;;4979102;28;20215;-90
2021/03/03 10:34:12;;;;;;;8.63;4.03;;;4.60;99.90;;;;;;4979549;28;20227;-90
2021/03/03 10:36:41;;;;;;;4.43;3.43;;;4.60;99.90;;;;;;5008591;28;20230;-90
2021/03/03 10:39:09;;;;;;;8.23;5.67;;;4.60;99.90;;;;;;4975384;28;20194;-90
2021/03/03 10:41:35;;;;;;;10.27;6.43;;;4.60;99.90;;;;;;4992136;28;20237;-90
2021/03/03 10:44:06;;;;;;;26.23;6.23;;;4.70;99.90;;;;;;5006903;28;20242;-90
2021/03/03 10:46:32;;;;;;;5.70;5.00;;;4.80;99.90;;;;;;4989511;28;20258;-91
2021/03/03 10:49:12;;;;;;;6.63;4.80;;;4.80;99.90;;;;;;5013862;28;20357;-91
2021/03/03 10:51:39;;;;;;;4.40;3.30;;;4.80;99.90;;;;;;5010187;28;20249;-91
2021/03/03 10:54:06;;;;;;;10.70;7.87;;;4.80;99.90;;;;;;4994702;28;20190;-89
2021/03/03 10:56:33;;;;;;;8.53;6.27;;;4.80;99.90;;;;;;4968141;28;20202;-90
2021/03/03 10:59:01;;;;;;;4.07;3.53;;;4.90;99.90;;;;;;4990194;28;20219;-90
2021/03/03 11:01:40;;;;;;;3.23;2.83;;;4.80;99.90;;;;;;4995119;28;20304;-91
2021/03/03 11:04:07;;;;;;;6.90;4.17;;;4.80;99.90;;;;;;5029252;28;20244;-91
2021/03/03 11:06:36;;;;;;;4.63;4.23;;;4.70;99.90;;;;;;5028959;28;20241;-91
2021/03/03 11:09:06;;;;;;;5.57;4.13;;;4.80;99.90;;;;;;4996838;28;20218;-91
2021/03/03 11:11:32;;;;;;;8.17;5.70;;;4.80;99.90;;;;;;5032518;28;20333;-91
2021/03/03 11:13:58;;;;;;;5.00;4.53;;;4.70;99.90;;;;;;4990283;28;20215;-90
2021/03/03 11:16:23;;;;;;;7.33;6.20;;;4.60;99.90;;;;;;4989532;28;20219;-84
2021/03/03 11:18:50;;;;;;;30.20;7.73;;;4.60;99.90;;;;;;4980121;28;20229;-85
2021/03/03 11:21:16;;;;;;;16.23;6.93;;;4.70;99.90;;;;;;5016798;28;20197;-85
2021/03/03 11:23:42;;;;;;;6.77;5.73;;;4.70;99.90;;;;;;4989575;28;20195;-84
2021/03/03 11:26:08;;;;;;;10.03;6.57;;;4.70;99.90;;;;;;4981358;28;20738;-84
2021/03/03 11:28:34;;;;;;;4.10;3.70;;;4.80;99.90;;;;;;4994191;28;20699;-84
2021/03/03 11:31:00;;;;;;;5.83;5.33;;;4.70;99.90;;;;;;4993558;28;20230;-85
2021/03/03 11:33:26;;;;;;;8.73;5.43;;;4.70;99.90;;;;;;4974391;28;20210;-85
2021/03/03 11:35:52;;;;;;;7.97;4.80;;;4.70;99.90;;;;;;5009012;28;20666;-85
2021/03/03 11:38:17;;;;;;;8.90;7.37;;;4.70;99.90;;;;;;4986808;28;20226;-85
2021/03/03 11:40:43;;;;;;;9.07;6.20;;;4.70;99.90;;;;;;5005009;28;20245;-85
2021/03/03 11:43:09;;;;;;;6.00;5.40;;;4.70;99.90;;;;;;4995402;28;20245;-85
2021/03/03 11:45:35;;;;;;;5.33;4.83;;;4.80;99.90;;;;;;4985000;28;20233;-85
2021/03/03 11:48:01;;;;;;;5.40;4.93;;;4.70;99.90;;;;;;5002845;28;20183;-84
2021/03/03 11:50:26;;;;;;;5.87;4.87;;;4.70;99.90;;;;;;5006966;28;20296;-84
2021/03/03 11:52:52;;;;;;;3.20;2.97;;;4.80;99.90;;;;;;4985828;28;20993;-83
2021/03/03 11:55:18;;;;;;;6.73;6.13;;;4.80;99.90;;;;;;5005026;28;20770;-84
2021/03/03 11:57:44;;;;;;;5.13;4.13;;;4.80;99.90;;;;;;4998453;28;20211;-85
2021/03/03 12:00:14;;;;;;;8.40;4.97;;;4.80;99.90;;;;;;4981591;28;20758;-83
2021/03/03 12:02:40;;;;;;;3.60;2.70;;;4.80;99.90;;;;;;4983773;28;20221;-84
2021/03/03 12:05:09;;;;;;;8.63;7.83;;;4.90;99.90;;;;;;5005943;28;20816;-86
2021/03/03 12:07:35;;;;;;;7.17;5.20;;;5.00;99.90;;;;;;4985694;28;20225;-91
2021/03/03 12:10:02;;;;;;;9.43;5.43;;;5.10;99.90;;;;;;4975129;28;20234;-89
2021/03/03 12:12:28;;;;;;;8.67;7.73;;;4.90;99.90;;;;;;5002359;28;21108;-92
2021/03/03 12:14:54;;;;;;;7.80;6.20;;;5.00;99.90;;;;;;4972207;28;20750;-91
2021/03/03 12:17:20;;;;;;;16.07;5.20;;;5.10;99.90;;;;;;4970783;28;20238;-91
2021/03/03 12:19:45;;;;;;;7.97;7.30;;;5.00;99.90;;;;;;4972919;28;20251;-92
2021/03/03 12:22:11;;;;;;;6.33;5.63;;;5.10;99.90;;;;;;4998572;28;20258;-92
2021/03/03 12:24:37;;;;;;;9.97;7.77;;;5.20;99.90;;;;;;4976174;28;20231;-91
2021/03/03 12:27:03;;;;;;;4.70;4.27;;;5.00;99.90;;;;;;4990869;28;20191;-91
2021/03/03 12:29:29;;;;;;;9.00;6.10;;;5.00;99.90;;;;;;4985674;28;20223;-92
2021/03/03 12:31:56;;;;;;;8.67;5.60;;;5.10;99.90;;;;;;4966980;28;20216;-92
2021/03/03 12:34:23;;;;;;;8.03;6.30;;;5.10;99.90;;;;;;4967350;28;20220;-91
2021/03/03 12:36:49;;;;;;;8.87;7.37;;;5.00;99.90;;;;;;4967255;28;20307;-92
2021/03/03 12:39:15;;;;;;;7.10;5.97;;;5.00;99.90;;;;;;4951658;28;21226;-91
2021/03/03 12:41:41;;;;;;;7.50;4.20;;;5.10;99.90;;;;;;4986883;28;21211;-91
2021/03/03 12:44:07;;;;;;;4.87;4.13;;;5.00;99.90;;;;;;4974939;28;20211;-92
2021/03/03 12:46:33;;;;;;;11.47;7.43;;;5.10;99.90;;;;;;4989227;28;20291;-91
2021/03/03 12:48:58;;;;;;;5.53;3.87;;;5.00;99.90;;;;;;4968669;28;20325;-92
2021/03/03 12:51:24;;;;;;;9.73;5.77;;;5.10;99.90;;;;;;5007723;28;20247;-91
2021/03/03 12:53:50;;;;;;;7.07;6.37;;;5.10;99.90;;;;;;5007775;28;20783;-92
2021/03/03 12:56:16;;;;;;;5.57;5.03;;;5.00;99.90;;;;;;4977040;28;20245;-91
2021/03/03 12:58:42;;;;;;;8.83;6.20;;;5.00;99.90;;;;;;5010237;28;20218;-92
2021/03/03 13:01:08;;;;;;;7.17;5.17;;;5.00;99.90;;;;;;4988104;28;20336;-92